Flag for Australia

Past Weather in 37°40'07.8"S, 144°58'11.2"E, Australia — Yesterday and Last 2 Weeks

Currently: 68 °F. Thunderstorms. Broken clouds. (Weather station: Melbourne Airport, Australia). See more current weather

Past Weather in 37°40'07.8"S, 144°58'11.2"E — Graph

°F

37°40'07.8"S, 144°58'11.2"E Temperature Yesterday

Maximum temperature yesterday: 86 °F (at 1:00 pm)
Minimum temperature yesterday: 54 °F (at 4:30 am)
Average temperature yesterday: 72 °F

High & Low Weather Summary for the Past Weeks

 TemperatureHumidityPressure
High90 °F (Dec 1, 2:30 pm)100% (Nov 22, 1:30 am)30.24 "Hg (Nov 22, 1:30 am)
Low45 °F (Nov 28, 5:30 am)20% (Nov 30, 3:00 pm)29.62 "Hg (Nov 18, 7:00 pm)
Average62 °F69%30.01 "Hg
* Reported Nov 16 4:00 pm — Dec 1 4:34 pm, 37°40'07.8"S, 144°58'11.2"E. Weather by CustomWeather, © 2021

Note: Actual official high and low records may vary slightly from our data, if they occured in-between our weather recording intervals... More about our weather records

37°40'07.8"S, 144°58'11.2"E Weather History for the Previous 24 Hours

Scroll right to see more
 ConditionsComfort  
Time TempWeatherWind HumidityBarometerVisibility
4:34 pm
Wed, Dec 1
66 °FThunderstorms. Broken clouds.26 mph83%29.86 "HgN/A
4:23 pm66 °FStrong thunderstorms. Scattered clouds.29 mph78%29.92 "Hg1 mi
4:00 pm81 °FThunderstorms. Broken clouds.12 mph58%29.83 "Hg3 mi
3:43 pm82 °FHail. Scattered clouds.16 mph51%29.83 "HgN/A
3:30 pm88 °FThunderstorms. Scattered clouds.20 mph33%29.83 "HgN/A
3:00 pm90 °FScattered showers. Sunny.20 mph38%29.83 "HgN/A
2:30 pm90 °FThunderstorms. Partly sunny.20 mph38%29.86 "HgN/A
2:01 pm88 °FThunderstorms. Scattered clouds.22 mph40%29.86 "HgN/A
1:30 pm88 °FPartly sunny.21 mph40%29.86 "HgN/A
1:00 pm86 °FSunny.20 mph43%29.89 "Hg10 mi
12:30 pm86 °FSunny.20 mph46%29.89 "Hg10 mi
12:00 pm82 °FSunny.20 mph51%29.89 "Hg10 mi
11:00 am81 °FSunny.20 mph48%29.89 "Hg10 mi
10:30 am81 °FSunny.22 mph48%29.89 "Hg10 mi
10:00 am79 °FSunny.23 mph48%29.89 "Hg10 mi
9:30 am77 °FSunny.24 mph44%29.89 "Hg10 mi
9:02 am77 °FSunny.22 mph44%29.89 "Hg10 mi
8:30 am75 °FSunny.18 mph44%29.89 "Hg10 mi
8:00 am72 °FSunny.18 mph50%29.89 "Hg10 mi
7:30 am70 °FSunny.16 mph53%29.89 "Hg10 mi
7:00 am68 °FSunny.15 mph53%29.89 "Hg10 mi
6:30 am68 °FSunny.16 mph53%29.86 "Hg10 mi
6:00 am68 °FSunny.16 mph49%29.86 "Hg10 mi
5:30 am68 °FClear.16 mph49%29.86 "Hg10 mi
5:00 am68 °FClear.16 mph49%29.86 "Hg10 mi
4:30 am68 °FClear.14 mph49%29.83 "Hg10 mi
4:00 am68 °FClear.13 mph53%29.83 "Hg10 mi
3:30 am68 °FClear.14 mph53%29.83 "Hg10 mi
3:00 am68 °FClear.13 mph53%29.86 "Hg10 mi
2:30 am66 °FClear.13 mph52%29.86 "Hg10 mi
2:00 am64 °FClear.12 mph60%29.86 "Hg10 mi
1:30 am63 °FClear.12 mph64%29.86 "Hg10 mi
1:00 am66 °FClear.14 mph56%29.86 "Hg10 mi
12:30 am64 °FClear.8 mph60%29.86 "Hg10 mi
12:00 am66 °FClear.6 mph56%29.86 "Hg10 mi
11:30 pm
Tue, Nov 30
68 °FClear.9 mph49%29.86 "Hg10 mi
11:00 pm70 °FClear.12 mph46%29.86 "Hg10 mi
10:30 pm70 °FClear.6 mph46%29.89 "Hg10 mi
10:00 pm70 °FClear.7 mph53%29.86 "Hg10 mi
9:30 pm70 °FClear.7 mph53%29.86 "Hg10 mi
9:00 pm75 °FClear.6 mph39%29.86 "Hg10 mi
8:30 pm77 °FClear.5 mph36%29.86 "Hg10 mi
8:00 pm81 °FSunny.6 mph34%29.86 "Hg10 mi
7:00 pm84 °FSunny.8 mph25%29.83 "Hg10 mi
6:30 pm86 °FSunny.8 mph24%29.83 "Hg10 mi
6:00 pm86 °FPassing clouds.10 mph24%29.83 "HgN/A
5:30 pm86 °FSunny.9 mph24%29.83 "Hg10 mi
5:00 pm86 °FSunny.8 mph24%29.86 "Hg10 mi
Weather by CustomWeather, © 2021

See weather overview